createdAt,value
2016-08-26T00:00:04.914Z,16.26
2016-08-26T00:01:03.521Z,16.26
2016-08-26T00:02:03.834Z,16.16
2016-08-26T00:03:04.410Z,16.13
2016-08-26T00:04:04.180Z,16.17
2016-08-26T00:05:04.338Z,16.24
2016-08-26T00:06:04.033Z,16.16
2016-08-26T00:07:04.181Z,16.08
2016-08-26T00:08:03.995Z,16.12
2016-08-26T00:09:04.913Z,16.13
2016-08-26T00:10:05.056Z,16.33
2016-08-26T00:11:03.354Z,16.39
2016-08-26T00:12:04.974Z,16.43
2016-08-26T00:13:04.466Z,16.5
2016-08-26T00:14:05.657Z,16.39
2016-08-26T00:15:04.718Z,16.24
2016-08-26T00:16:04.880Z,16.21
2016-08-26T00:17:06.201Z,16.41
2016-08-26T00:18:04.865Z,16.49
2016-08-26T00:19:03.790Z,16.49
2016-08-26T00:20:03.971Z,16.43
2016-08-26T00:21:05.152Z,16.16
2016-08-26T00:22:03.843Z,16.04
2016-08-26T00:23:04.257Z,15.88
2016-08-26T00:24:04.646Z,15.64
2016-08-26T00:25:04.412Z,15.51
2016-08-26T00:26:04.658Z,15.57
2016-08-26T00:27:06.453Z,15.61
2016-08-26T00:28:03.555Z,15.59
2016-08-26T00:29:05.110Z,15.64
2016-08-26T00:30:03.762Z,15.97
2016-08-26T00:31:05.242Z,16.09
2016-08-26T00:32:04.252Z,16.21
2016-08-26T00:33:05.895Z,16.17
2016-08-26T00:34:05.503Z,16.39
2016-08-26T00:35:04.604Z,16.36
2016-08-26T00:36:05.074Z,16.42
2016-08-26T00:37:05.484Z,16.5
2016-08-26T00:38:05.185Z,16.36
2016-08-26T00:39:04.542Z,16.2
2016-08-26T00:40:05.896Z,16.09
2016-08-26T00:41:03.862Z,16.08
2016-08-26T00:42:05.583Z,16.15
2016-08-26T00:43:03.704Z,16.13
2016-08-26T00:44:05.049Z,16.2
2016-08-26T00:45:05.553Z,16.24
2016-08-26T00:46:07.340Z,16.23
2016-08-26T00:47:05.186Z,16.31
2016-08-26T00:48:05.739Z,16.33
2016-08-26T00:49:05.495Z,16.21
2016-08-26T00:50:05.543Z,16.2
2016-08-26T00:51:04.415Z,16.15
2016-08-26T00:52:05.214Z,16.16
2016-08-26T00:53:05.053Z,16.08
2016-08-26T00:54:06.273Z,16.15
2016-08-26T00:55:04.745Z,16.31
2016-08-26T00:56:07.214Z,16.49
2016-08-26T00:57:05.504Z,16.53
2016-08-26T00:58:05.696Z,16.51
2016-08-26T00:59:04.582Z,16.47
2016-08-26T01:00:06.047Z,16.46
2016-08-26T01:01:05.608Z,16.33
2016-08-26T01:02:04.768Z,16.23
2016-08-26T01:03:05.465Z,16.04
2016-08-26T01:04:04.345Z,15.75
2016-08-26T01:05:05.217Z,15.51
2016-08-26T01:06:05.635Z,15.52
2016-08-26T01:07:07.280Z,15.49
2016-08-26T01:08:06.220Z,15.37
2016-08-26T01:09:04.730Z,15.33
2016-08-26T01:10:07.044Z,15.25
2016-08-26T01:11:06.472Z,15.15
2016-08-26T01:12:07.944Z,15.27
2016-08-26T01:13:07.727Z,15.33
2016-08-26T01:14:06.110Z,15.21
2016-08-26T01:15:06.682Z,15.33
2016-08-26T01:16:06.164Z,15.24
2016-08-26T01:17:06.232Z,15.44
2016-08-26T01:18:07.975Z,15.49
2016-08-26T01:19:07.115Z,15.47
2016-08-26T01:20:07.083Z,15.36
2016-08-26T01:21:07.130Z,15.29
2016-08-26T01:22:06.114Z,15.36
2016-08-26T01:23:05.242Z,15.21
2016-08-26T01:24:06.187Z,15.06
2016-08-26T01:25:07.332Z,15.09
2016-08-26T01:26:06.337Z,15.18
2016-08-26T01:27:05.792Z,15.07
2016-08-26T01:28:08.085Z,15.19
2016-08-26T01:29:06.134Z,15.06
2016-08-26T01:30:05.865Z,14.96
2016-08-26T01:31:06.171Z,14.92
2016-08-26T01:32:06.078Z,15.06
2016-08-26T01:33:07.552Z,14.97
2016-08-26T01:34:07.712Z,14.97
2016-08-26T01:35:06.578Z,14.96
2016-08-26T01:36:06.504Z,14.85
2016-08-26T01:37:08.220Z,14.86
2016-08-26T01:38:07.827Z,14.88
2016-08-26T01:39:06.200Z,15.07
2016-08-26T01:40:07.996Z,15.19
2016-08-26T01:41:06.766Z,15.21
2016-08-26T01:42:08.475Z,15.27
2016-08-26T01:43:08.027Z,15.29
2016-08-26T01:44:07.062Z,15.35
2016-08-26T01:45:07.421Z,15.39
2016-08-26T01:46:07.238Z,15.35
2016-08-26T01:47:07.281Z,15.28
2016-08-26T01:48:07.797Z,15.15
2016-08-26T01:49:06.967Z,15.09
2016-08-26T01:50:07.955Z,15.04
2016-08-26T01:51:06.916Z,15.06
2016-08-26T01:52:06.189Z,15.04
2016-08-26T01:53:06.543Z,15.25
2016-08-26T01:54:06.380Z,15.14
2016-08-26T01:55:07.133Z,15.03
2016-08-26T01:56:06.592Z,15.03
2016-08-26T01:57:06.715Z,15.1
2016-08-26T01:58:06.977Z,15.25
2016-08-26T01:59:07.794Z,15.31
2016-08-26T02:00:07.944Z,15.22
2016-08-26T02:01:07.148Z,15.37
2016-08-26T02:02:07.209Z,15.25
2016-08-26T02:03:06.629Z,15.36
2016-08-26T02:04:07.165Z,15.42
2016-08-26T02:05:08.930Z,15.35
2016-08-26T02:06:08.538Z,15.4
2016-08-26T02:07:07.109Z,15.49
2016-08-26T02:08:07.617Z,15.51
2016-08-26T02:09:07.072Z,15.46
2016-08-26T02:10:08.480Z,15.46
2016-08-26T02:11:07.553Z,15.46
2016-08-26T02:12:07.751Z,15.39
2016-08-26T02:13:06.147Z,15.42
2016-08-26T02:14:07.669Z,15.44
2016-08-26T02:15:09.102Z,15.39
2016-08-26T02:16:07.228Z,15.39
2016-08-26T02:17:06.601Z,15.27
2016-08-26T02:18:07.189Z,15.03
2016-08-26T02:19:07.142Z,15.09
2016-08-26T02:20:07.572Z,15.14
2016-08-26T02:21:06.585Z,15.17
2016-08-26T02:22:07.316Z,15.17
2016-08-26T02:23:07.464Z,15.14
2016-08-26T02:24:07.932Z,15.11
2016-08-26T02:25:07.645Z,14.92
2016-08-26T02:26:06.639Z,15.06
2016-08-26T02:27:07.238Z,15.15
2016-08-26T02:28:08.211Z,15.14
2016-08-26T02:29:06.688Z,15.15
2016-08-26T02:30:08.511Z,15.14
2016-08-26T02:31:06.990Z,15.15
2016-08-26T02:32:07.386Z,15.06
2016-08-26T02:33:06.929Z,15.14
2016-08-26T02:34:07.539Z,15.31
2016-08-26T02:35:08.461Z,15.27
2016-08-26T02:36:07.402Z,15.22
2016-08-26T02:37:07.939Z,15.28
2016-08-26T02:38:07.928Z,15.24
2016-08-26T02:39:08.273Z,15.31
2016-08-26T02:40:07.411Z,15.25
2016-08-26T02:41:07.198Z,15.29
2016-08-26T02:42:08.193Z,15.21
2016-08-26T02:43:07.422Z,15.28
2016-08-26T02:44:08.344Z,15.21
2016-08-26T02:45:07.403Z,15.11
2016-08-26T02:46:08.811Z,15.02
2016-08-26T02:47:08.418Z,15.03
2016-08-26T02:48:08.388Z,15.04
2016-08-26T02:49:08.120Z,14.99
2016-08-26T02:50:08.547Z,15.04
2016-08-26T02:51:07.532Z,15.14
2016-08-26T02:52:08.547Z,15.03
2016-08-26T02:53:08.246Z,15.11
2016-08-26T02:54:11.136Z,15.07
2016-08-26T02:55:08.549Z,15.06
2016-08-26T02:56:08.460Z,15.21
2016-08-26T02:57:08.732Z,15.25
2016-08-26T02:58:09.154Z,15.29
2016-08-26T02:59:09.830Z,15.4
2016-08-26T03:00:08.626Z,15.47
2016-08-26T03:01:08.874Z,15.61
2016-08-26T03:02:08.833Z,15.72
2016-08-26T03:03:08.141Z,15.72
2016-08-26T03:04:09.009Z,15.82
2016-08-26T03:05:09.494Z,15.91
2016-08-26T03:06:08.181Z,15.98
2016-08-26T03:07:08.681Z,15.88
2016-08-26T03:08:09.635Z,16.01
2016-08-26T03:09:09.326Z,16.04
2016-08-26T03:10:09.021Z,16.01
2016-08-26T03:11:10.265Z,15.98
2016-08-26T03:12:08.322Z,16.05
2016-08-26T03:13:09.508Z,16.13
2016-08-26T03:14:09.930Z,16.02
2016-08-26T03:15:09.447Z,16.04
2016-08-26T03:16:08.194Z,16.17
2016-08-26T03:17:09.336Z,16.15
2016-08-26T03:18:09.731Z,16.13
2016-08-26T03:19:08.930Z,15.94
2016-08-26T03:20:09.268Z,15.7
2016-08-26T03:21:09.176Z,15.52
2016-08-26T03:22:09.111Z,15.49
2016-08-26T03:23:09.070Z,15.42
2016-08-26T03:24:10.095Z,15.4
2016-08-26T03:25:07.789Z,15.36
2016-08-26T03:26:07.802Z,15.35
2016-08-26T03:27:11.925Z,15.29
2016-08-26T03:28:08.578Z,15.22
2016-08-26T03:29:08.995Z,15.46
2016-08-26T03:30:09.890Z,15.57
2016-08-26T03:31:09.057Z,15.83
2016-08-26T03:32:09.479Z,15.79
2016-08-26T03:33:09.014Z,15.75
2016-08-26T03:34:09.243Z,15.61
2016-08-26T03:35:09.855Z,15.68
2016-08-26T03:36:10.073Z,15.49
2016-08-26T03:37:10.131Z,15.21
2016-08-26T03:38:09.303Z,15.24
2016-08-26T03:39:09.210Z,15.24
2016-08-26T03:40:10.238Z,15.31
2016-08-26T03:41:09.341Z,15.43
2016-08-26T03:42:09.646Z,15.49
2016-08-26T03:43:10.948Z,15.51
2016-08-26T03:44:09.204Z,15.15
2016-08-26T03:45:09.972Z,15.11
2016-08-26T03:46:11.517Z,15.1
2016-08-26T03:47:10.146Z,15.11
2016-08-26T03:48:09.138Z,15.06
2016-08-26T03:49:09.058Z,14.94
2016-08-26T03:50:10.033Z,14.84
2016-08-26T03:51:09.919Z,14.73
2016-08-26T03:52:09.972Z,14.77
2016-08-26T03:53:09.344Z,14.69
2016-08-26T03:54:10.032Z,14.79
2016-08-26T03:55:09.415Z,14.65
2016-08-26T03:56:09.875Z,14.7
2016-08-26T03:57:10.715Z,14.66
2016-08-26T03:58:09.341Z,14.7
2016-08-26T03:59:09.003Z,14.65
2016-08-26T04:00:10.179Z,14.77
2016-08-26T04:01:09.815Z,14.91
2016-08-26T04:02:08.795Z,15.04
2016-08-26T04:03:09.945Z,15.11
2016-08-26T04:04:10.615Z,15.09
2016-08-26T04:05:09.696Z,15.1
2016-08-26T04:06:09.013Z,15.29
2016-08-26T04:07:08.896Z,15.44
2016-08-26T04:08:09.580Z,15.52
2016-08-26T04:09:09.887Z,15.47
2016-08-26T04:10:10.332Z,15.57
2016-08-26T04:11:09.645Z,15.67
2016-08-26T04:12:10.673Z,15.55
2016-08-26T04:13:11.063Z,15.44
2016-08-26T04:14:09.106Z,15.35
2016-08-26T04:15:10.698Z,15.39
2016-08-26T04:16:10.115Z,15.43
2016-08-26T04:17:10.240Z,15.39
2016-08-26T04:18:10.581Z,15.24
2016-08-26T04:19:10.670Z,15.27
2016-08-26T04:20:09.229Z,15.35
2016-08-26T04:21:10.724Z,15.39
2016-08-26T04:22:11.034Z,15.4
2016-08-26T04:23:11.835Z,15.39
2016-08-26T04:24:12.042Z,15.47
2016-08-26T04:25:12.407Z,15.4
2016-08-26T04:26:10.355Z,15.28
2016-08-26T04:27:09.852Z,15.37
2016-08-26T04:28:09.810Z,15.28
2016-08-26T04:29:10.620Z,15.25
2016-08-26T04:30:09.660Z,15.27
2016-08-26T04:31:11.176Z,15.22
2016-08-26T04:32:10.230Z,15.25
2016-08-26T04:33:10.967Z,15.24
2016-08-26T04:34:10.368Z,15.21
2016-08-26T04:35:09.708Z,15.22
2016-08-26T04:36:12.549Z,15.22
2016-08-26T04:37:10.970Z,15.31
2016-08-26T04:38:10.549Z,15.22
2016-08-26T04:39:11.691Z,15.24
2016-08-26T04:40:10.268Z,15.22
2016-08-26T04:41:10.656Z,15.22
2016-08-26T04:42:11.479Z,15.29
2016-08-26T04:43:12.376Z,15.4
2016-08-26T04:44:11.428Z,15.36
2016-08-26T04:45:10.390Z,15.46
2016-08-26T04:46:10.887Z,15.4
2016-08-26T04:47:11.962Z,15.4
2016-08-26T04:48:10.342Z,15.46
2016-08-26T04:49:11.618Z,15.39
2016-08-26T04:50:10.812Z,15.37
2016-08-26T04:51:12.267Z,15.35
2016-08-26T04:52:10.526Z,15.4
2016-08-26T04:53:11.982Z,15.39
2016-08-26T04:54:11.329Z,15.37
2016-08-26T04:55:10.854Z,15.27
2016-08-26T04:56:10.809Z,15.24
2016-08-26T04:57:10.718Z,15.36
2016-08-26T04:58:12.636Z,15.35
2016-08-26T04:59:10.906Z,15.42
2016-08-26T05:00:11.742Z,15.33
2016-08-26T05:01:11.095Z,15.24
2016-08-26T05:02:13.109Z,15.24
2016-08-26T05:03:11.862Z,15.25
2016-08-26T05:04:11.970Z,15.14
2016-08-26T05:05:12.173Z,15.1
2016-08-26T05:06:12.970Z,15.06
2016-08-26T05:07:10.590Z,15.07
2016-08-26T05:08:12.198Z,15.04
2016-08-26T05:09:12.682Z,15.15
2016-08-26T05:10:10.180Z,15.02
2016-08-26T05:11:12.246Z,15.11
2016-08-26T05:12:12.684Z,15.03
2016-08-26T05:13:12.509Z,15.07
2016-08-26T05:14:10.624Z,15.03
2016-08-26T05:15:12.464Z,15.03
2016-08-26T05:16:12.076Z,14.92
2016-08-26T05:17:11.004Z,14.97
2016-08-26T05:18:11.403Z,14.85
2016-08-26T05:19:11.929Z,14.73
2016-08-26T05:20:12.496Z,14.73
2016-08-26T05:21:11.165Z,14.81
2016-08-26T05:22:12.669Z,14.82
2016-08-26T05:23:12.092Z,15.06
2016-08-26T05:24:12.398Z,15.04
2016-08-26T05:25:12.613Z,15.04
2016-08-26T05:26:13.076Z,15.11
2016-08-26T05:27:11.957Z,15.1
2016-08-26T05:28:12.030Z,15.35
2016-08-26T05:29:11.732Z,15.37
2016-08-26T05:30:10.677Z,15.55
2016-08-26T05:31:11.960Z,15.51
2016-08-26T05:32:10.969Z,15.52
2016-08-26T05:33:13.013Z,15.62
2016-08-26T05:34:12.919Z,15.73
2016-08-26T05:35:11.923Z,15.83
2016-08-26T05:36:11.270Z,15.97
2016-08-26T05:37:12.724Z,16
2016-08-26T05:38:12.874Z,15.92
2016-08-26T05:39:11.171Z,15.92
2016-08-26T05:40:12.072Z,15.97
2016-08-26T05:41:13.404Z,16.04
2016-08-26T05:42:13.643Z,16
2016-08-26T05:43:16.719Z,16.15
2016-08-26T05:44:11.278Z,16.16
2016-08-26T05:45:12.979Z,15.98
2016-08-26T05:46:12.742Z,16.1
2016-08-26T05:47:12.028Z,16.2
2016-08-26T05:48:11.711Z,16.23
2016-08-26T05:49:11.315Z,16.29
2016-08-26T05:50:12.907Z,16.28
2016-08-26T05:51:12.992Z,16.23
2016-08-26T05:52:12.768Z,16.21
2016-08-26T05:53:12.503Z,16.23
2016-08-26T05:54:12.645Z,16.2
2016-08-26T05:55:11.917Z,16.28
2016-08-26T05:56:12.539Z,16.23
2016-08-26T05:57:11.545Z,16.26
2016-08-26T05:58:12.351Z,16.35
2016-08-26T05:59:12.836Z,16.35
2016-08-26T06:00:11.689Z,16.51
2016-08-26T06:01:12.204Z,16.5
2016-08-26T06:03:12.607Z,16.56
2016-08-26T06:04:12.992Z,16.6
2016-08-26T06:05:12.819Z,16.66
2016-08-26T06:06:12.125Z,16.69
2016-08-26T06:07:12.008Z,16.83
2016-08-26T06:08:12.563Z,16.89
2016-08-26T06:09:11.826Z,16.91
2016-08-26T06:10:13.117Z,16.99
2016-08-26T06:11:12.530Z,17.06
2016-08-26T06:12:12.730Z,17.08
2016-08-26T06:13:12.396Z,17.26
2016-08-26T06:14:11.942Z,17.22
2016-08-26T06:15:12.519Z,17.24
2016-08-26T06:16:11.914Z,17.27
2016-08-26T06:17:11.829Z,17.27
2016-08-26T06:18:12.719Z,17.29
2016-08-26T06:19:12.766Z,17.39
2016-08-26T06:20:12.462Z,17.57
2016-08-26T06:21:11.560Z,17.59
2016-08-26T06:22:13.929Z,17.74
2016-08-26T06:23:13.654Z,18
2016-08-26T06:24:14.002Z,18.1
2016-08-26T06:25:12.654Z,18.1
2016-08-26T06:26:13.449Z,18.45
2016-08-26T06:27:13.012Z,18.53
2016-08-26T06:28:13.217Z,18.45
2016-08-26T06:29:13.724Z,18.62
2016-08-26T06:30:12.087Z,18.56
2016-08-26T06:31:13.410Z,18.8
2016-08-26T06:32:13.051Z,18.93
2016-08-26T06:33:13.212Z,19.04
2016-08-26T06:34:13.237Z,19
2016-08-26T06:35:13.174Z,19.16
2016-08-26T06:36:15.144Z,19.22
2016-08-26T06:37:13.168Z,19.29
2016-08-26T06:38:13.938Z,19.29
2016-08-26T06:39:13.940Z,19.37
2016-08-26T06:40:14.608Z,19.4
2016-08-26T06:41:13.826Z,19.59
2016-08-26T06:42:15.107Z,19.86
2016-08-26T06:43:14.261Z,20.04
2016-08-26T06:44:15.031Z,20.22
2016-08-26T06:45:13.319Z,20.36
2016-08-26T06:46:13.721Z,20.41
2016-08-26T06:47:14.670Z,20.39
2016-08-26T06:48:13.981Z,20.51
2016-08-26T06:49:16.386Z,20.43
2016-08-26T06:50:15.164Z,20.47
2016-08-26T06:51:15.216Z,20.59
2016-08-26T06:52:13.799Z,20.41
2016-08-26T06:53:14.988Z,20.47
2016-08-26T06:54:13.287Z,20.63
2016-08-26T06:55:12.842Z,20.7
2016-08-26T06:56:15.083Z,20.99
2016-08-26T06:57:13.276Z,20.95
2016-08-26T06:58:14.620Z,21.12
2016-08-26T06:59:13.060Z,21.33
2016-08-26T07:00:14.113Z,21.57
2016-08-26T07:01:13.813Z,21.43
2016-08-26T07:02:15.235Z,21.61
2016-08-26T07:03:14.793Z,21.37
2016-08-26T07:04:13.682Z,21.42
2016-08-26T07:05:13.474Z,21.48
2016-08-26T07:06:14.952Z,21.58
2016-08-26T07:07:13.837Z,21.85
2016-08-26T07:08:15.187Z,21.93
2016-08-26T07:09:14.014Z,21.99
2016-08-26T07:10:14.769Z,22.08
2016-08-26T07:11:15.602Z,22.11
2016-08-26T07:12:13.604Z,22.2
2016-08-26T07:13:13.726Z,22.45
2016-08-26T07:14:16.189Z,22.63
2016-08-26T07:15:14.943Z,22.76
2016-08-26T07:16:15.238Z,22.84
2016-08-26T07:17:16.544Z,22.88
2016-08-26T07:18:14.800Z,22.78
2016-08-26T07:19:15.934Z,22.91
2016-08-26T07:20:15.625Z,22.85
2016-08-26T07:21:14.560Z,23.1
2016-08-26T07:22:13.685Z,23.03
2016-08-26T07:23:14.390Z,23.17
2016-08-26T07:24:15.237Z,23.28
2016-08-26T07:25:14.016Z,23.32
2016-08-26T07:26:15.990Z,23.4
2016-08-26T07:27:13.629Z,23.55
2016-08-26T07:28:13.768Z,23.39
2016-08-26T07:29:14.939Z,23.08
2016-08-26T07:30:15.005Z,23.51
2016-08-26T07:31:16.323Z,23.71
2016-08-26T07:32:15.948Z,23.88
2016-08-26T07:33:14.898Z,24.17
2016-08-26T07:34:16.950Z,24.36
2016-08-26T07:35:18.290Z,24.16
2016-08-26T07:36:15.203Z,24.38
2016-08-26T07:37:15.953Z,24.33
2016-08-26T07:38:15.815Z,24.33
2016-08-26T07:39:16.173Z,24.23
2016-08-26T07:40:15.529Z,24.2
2016-08-26T07:41:14.941Z,24.4
2016-08-26T07:42:16.940Z,24.48
2016-08-26T07:43:15.003Z,24.61
2016-08-26T07:44:16.207Z,24.77
2016-08-26T07:45:15.132Z,24.7
2016-08-26T07:46:15.915Z,24.76
2016-08-26T07:47:15.123Z,24.86
2016-08-26T07:48:14.923Z,24.8
2016-08-26T07:49:17.312Z,24.76
2016-08-26T07:50:16.057Z,24.91
2016-08-26T07:51:17.246Z,24.89
2016-08-26T07:52:15.469Z,25.65
2016-08-26T07:53:16.486Z,25.66
2016-08-26T07:54:15.039Z,25.32
2016-08-26T07:55:15.887Z,25.58
2016-08-26T07:56:15.663Z,25.93
2016-08-26T07:57:15.718Z,25.85
2016-08-26T07:58:17.405Z,25.95
2016-08-26T07:59:16.274Z,25.69
2016-08-26T08:00:17.070Z,25.83
2016-08-26T08:01:15.455Z,25.77
2016-08-26T08:02:16.872Z,26.13
2016-08-26T08:03:15.104Z,25.85
2016-08-26T08:04:15.395Z,26.02
2016-08-26T08:05:15.403Z,26
2016-08-26T08:06:17.319Z,26
2016-08-26T08:07:15.747Z,26.21
2016-08-26T08:08:15.260Z,26.89
2016-08-26T08:09:16.018Z,27.2
2016-08-26T08:10:15.738Z,26.96
2016-08-26T08:11:17.725Z,27.27
2016-08-26T08:12:16.469Z,27.42
2016-08-26T08:13:14.723Z,27.37
2016-08-26T08:14:17.339Z,27.78
2016-08-26T08:15:15.507Z,27.86
2016-08-26T08:16:17.057Z,28.22
2016-08-26T08:17:15.326Z,28.32
2016-08-26T08:18:17.909Z,27.9
2016-08-26T08:19:15.559Z,27.75
2016-08-26T08:20:17.027Z,27.73
2016-08-26T08:21:15.951Z,27.75
2016-08-26T08:22:17.179Z,27.9
2016-08-26T08:23:15.403Z,27.93
2016-08-26T08:24:16.440Z,28.04
2016-08-26T08:25:16.847Z,27.7
2016-08-26T08:26:17.702Z,27.27
2016-08-26T08:27:17.575Z,27.71
2016-08-26T08:28:17.773Z,27.52
2016-08-26T08:29:16.243Z,27.74
2016-08-26T08:30:16.184Z,28.37
2016-08-26T08:31:17.672Z,27.37
2016-08-26T08:32:16.545Z,27.63
2016-08-26T08:33:18.724Z,28.05
2016-08-26T08:34:16.460Z,28.14
2016-08-26T08:35:17.318Z,28.33
2016-08-26T08:36:18.546Z,28.15
2016-08-26T08:37:17.514Z,28.32
2016-08-26T08:38:17.419Z,28.67
2016-08-26T08:39:15.735Z,28.69
2016-08-26T08:40:17.048Z,29.19
2016-08-26T08:41:17.035Z,28.81
2016-08-26T08:42:18.159Z,28.88
2016-08-26T08:43:16.096Z,28.63
2016-08-26T08:44:18.868Z,28.93
2016-08-26T08:45:16.662Z,29.49
2016-08-26T08:46:17.984Z,28.67
2016-08-26T08:47:18.013Z,29.17
2016-08-26T08:48:19.589Z,29.01
2016-08-26T08:49:18.141Z,28.89
2016-08-26T08:50:15.826Z,29.59
2016-08-26T08:51:18.085Z,29.05
2016-08-26T08:52:16.336Z,29.73
2016-08-26T08:53:17.405Z,30.28
2016-08-26T08:54:17.843Z,30.18
2016-08-26T08:55:17.842Z,29.59
2016-08-26T08:56:17.023Z,30.31
2016-08-26T08:57:17.898Z,29.95
2016-08-26T08:58:17.511Z,30.3
2016-08-26T08:59:17.113Z,30.53
2016-08-26T09:00:17.914Z,30.65
2016-08-26T09:01:18.301Z,30.27
2016-08-26T09:02:17.351Z,30.23
2016-08-26T09:03:19.051Z,30.69
2016-08-26T09:04:19.024Z,31.06
2016-08-26T09:05:17.516Z,31.39
2016-08-26T09:06:17.348Z,30.47
2016-08-26T09:07:18.719Z,31
2016-08-26T09:08:17.918Z,30.5
2016-08-26T09:09:16.877Z,30.25
2016-08-26T09:10:17.702Z,30.06
2016-08-26T09:11:18.505Z,29.91
2016-08-26T09:12:20.858Z,30.03
2016-08-26T09:13:19.016Z,30.47
2016-08-26T09:14:18.765Z,30.61
2016-08-26T09:15:17.977Z,29.73
2016-08-26T09:16:18.186Z,30.03
2016-08-26T09:17:18.055Z,30.25
2016-08-26T09:18:18.616Z,31.25
2016-08-26T09:19:18.291Z,31.14
2016-08-26T09:20:18.469Z,30.84
2016-08-26T09:21:17.298Z,31.55
2016-08-26T09:22:18.833Z,31.99
2016-08-26T09:23:18.914Z,32.6
2016-08-26T09:24:18.560Z,31.7
2016-08-26T09:25:19.984Z,30.44
2016-08-26T09:26:17.801Z,30
2016-08-26T09:27:18.223Z,30.99
2016-08-26T09:28:19.577Z,31.55
2016-08-26T09:29:17.935Z,32.09
2016-08-26T09:30:17.498Z,32.04
2016-08-26T09:31:20.013Z,32.23
2016-08-26T09:32:20.159Z,31.9
2016-08-26T09:33:19.970Z,31.71
2016-08-26T09:34:18.194Z,31.49
2016-08-26T09:35:19.293Z,31.29
2016-08-26T09:36:18.203Z,32.55
2016-08-26T09:37:18.686Z,32.38
2016-08-26T09:38:19.996Z,32.7
2016-08-26T09:39:19.127Z,32.83
2016-08-26T09:40:18.905Z,32.86
2016-08-26T09:41:18.665Z,32.46
2016-08-26T09:42:18.229Z,33.14
2016-08-26T09:43:18.682Z,33.62
2016-08-26T09:44:20.903Z,32.52
2016-08-26T09:45:20.122Z,32.43
2016-08-26T09:46:19.942Z,33.45
2016-08-26T09:47:19.735Z,34.11
2016-08-26T09:48:19.113Z,33.42
2016-08-26T09:49:20.167Z,32.78
2016-08-26T09:50:18.332Z,32.71
2016-08-26T09:51:19.462Z,32.15
2016-08-26T09:52:19.588Z,32.4
2016-08-26T09:53:20.605Z,32.95
2016-08-26T09:54:19.712Z,33.32
2016-08-26T09:55:19.036Z,33
2016-08-26T09:56:19.481Z,32.78
2016-08-26T09:57:20.448Z,32.4
2016-08-26T09:58:21.203Z,31.78
2016-08-26T09:59:20.009Z,31.89
2016-08-26T10:00:20.279Z,31.9
2016-08-26T10:01:20.111Z,32.29
2016-08-26T10:02:20.844Z,33.8
2016-08-26T10:03:20.070Z,33.32
2016-08-26T10:04:19.814Z,33.52
2016-08-26T10:05:21.011Z,34.08
2016-08-26T10:06:18.974Z,34.66
2016-08-26T10:07:21.148Z,34.57
2016-08-26T10:08:20.751Z,34.01
2016-08-26T10:09:21.103Z,33.08
2016-08-26T10:10:20.127Z,33.94
2016-08-26T10:11:20.401Z,34.02
2016-08-26T10:12:19.314Z,33.87
2016-08-26T10:13:20.446Z,34.06
2016-08-26T10:14:20.253Z,34.62
2016-08-26T10:15:21.655Z,34.81
2016-08-26T10:16:20.255Z,35.26
2016-08-26T10:17:20.663Z,35.29
2016-08-26T10:18:20.702Z,35.31
2016-08-26T10:19:20.874Z,35.58
2016-08-26T10:20:20.348Z,34.62
2016-08-26T10:21:21.411Z,34.45
2016-08-26T10:22:19.925Z,34.17
2016-08-26T10:23:21.941Z,35.12
2016-08-26T10:24:21.353Z,34.36
2016-08-26T10:25:22.431Z,35.04
2016-08-26T10:26:21.212Z,33.3
2016-08-26T10:27:19.932Z,33.99
2016-08-26T10:28:21.059Z,33.99
2016-08-26T10:29:20.452Z,34.96
2016-08-26T10:30:20.163Z,34.45
2016-08-26T10:31:20.316Z,34.86
2016-08-26T10:32:21.159Z,35.33
2016-08-26T10:33:20.705Z,34.08
2016-08-26T10:34:21.593Z,34.45
2016-08-26T10:35:22.034Z,34.43
2016-08-26T10:36:21.092Z,34.32
2016-08-26T10:37:23.576Z,34.9
2016-08-26T10:38:20.959Z,34.85
2016-08-26T10:39:21.256Z,34.13
2016-08-26T10:40:20.764Z,33.55
2016-08-26T10:41:20.086Z,33.84
2016-08-26T10:42:21.591Z,34.17
2016-08-26T10:43:21.830Z,34.55
2016-08-26T10:44:22.331Z,34.95
2016-08-26T10:45:21.295Z,34.01
2016-08-26T10:46:21.131Z,34.45
2016-08-26T10:47:21.782Z,34.83
2016-08-26T10:48:21.123Z,34.73
2016-08-26T10:49:22.002Z,34.9
2016-08-26T10:50:22.907Z,35.7
2016-08-26T10:51:22.558Z,35.92
2016-08-26T10:52:20.610Z,36.33
2016-08-26T10:53:22.014Z,36.37
2016-08-26T10:54:22.088Z,34.5
2016-08-26T10:55:21.524Z,34.4
2016-08-26T10:56:21.672Z,33.76
2016-08-26T10:57:21.335Z,34.62
2016-08-26T10:58:23.073Z,34.4
2016-08-26T10:59:22.347Z,35.29
2016-08-26T11:00:22.707Z,33.92
2016-08-26T11:01:22.729Z,34.64
2016-08-26T11:02:21.293Z,35.29
2016-08-26T11:03:21.028Z,35.61
2016-08-26T11:04:22.255Z,36.77
2016-08-26T11:05:22.224Z,36.17
2016-08-26T11:06:21.226Z,36.67
2016-08-26T11:07:22.279Z,36.51
2016-08-26T11:08:23.390Z,34.81
2016-08-26T11:09:21.722Z,36.05
2016-08-26T11:10:22.324Z,36.64
2016-08-26T11:11:22.900Z,34.75
2016-08-26T11:12:22.318Z,36.64
2016-08-26T11:13:21.920Z,36.8
2016-08-26T11:14:23.423Z,35.19
2016-08-26T11:15:23.114Z,36.62
2016-08-26T11:16:22.447Z,37.11
2016-08-26T11:17:22.173Z,37.33
2016-08-26T11:18:23.274Z,37.92
2016-08-26T11:19:23.177Z,38.01
2016-08-26T11:20:24.089Z,35.86
2016-08-26T11:21:22.086Z,35.55
2016-08-26T11:22:24.096Z,35.55
2016-08-26T11:23:23.958Z,35.34
2016-08-26T11:24:23.040Z,36.83
2016-08-26T11:25:24.476Z,36.83
2016-08-26T11:26:23.260Z,36.95
2016-08-26T11:27:24.809Z,36.84
2016-08-26T11:28:22.638Z,36.08
2016-08-26T11:29:24.067Z,35.7
2016-08-26T11:30:22.967Z,36.51
2016-08-26T11:31:23.914Z,37.56
2016-08-26T11:32:23.518Z,37.93
2016-08-26T11:33:22.912Z,37.72
2016-08-26T11:34:24.735Z,37.86
2016-08-26T11:35:24.463Z,36.35
2016-08-26T11:36:23.356Z,36.12
2016-08-26T11:37:23.483Z,36.12
2016-08-26T11:38:23.329Z,35.52
2016-08-26T11:39:24.472Z,35.6
2016-08-26T11:40:23.456Z,35.88
2016-08-26T11:41:24.856Z,35.98
2016-08-26T11:42:22.993Z,37.68
2016-08-26T11:43:24.466Z,38.73
2016-08-26T11:44:24.404Z,38.95
2016-08-26T11:45:23.991Z,38.19
2016-08-26T11:46:25.296Z,37.07
2016-08-26T11:47:23.600Z,37.67
2016-08-26T11:48:24.716Z,37.71
2016-08-26T11:49:23.249Z,38.39
2016-08-26T11:50:25.352Z,39.34
2016-08-26T11:51:25.198Z,38.55
2016-08-26T11:52:24.476Z,36.33
2016-08-26T11:53:24.511Z,36.74
2016-08-26T11:54:25.924Z,37.37
2016-08-26T11:55:24.179Z,38.61
2016-08-26T11:56:24.584Z,38.2
2016-08-26T11:57:25.648Z,38.19
2016-08-26T11:58:24.912Z,37.68
2016-08-26T11:59:24.893Z,37.72
2016-08-26T12:00:24.928Z,38.26
2016-08-26T12:01:24.769Z,37.93
2016-08-26T12:02:24.436Z,36.77
2016-08-26T12:03:25.270Z,36.04
2016-08-26T12:04:24.661Z,35.46
2016-08-26T12:05:24.974Z,36.35
2016-08-26T12:06:25.122Z,37.67
2016-08-26T12:07:23.833Z,37.44
2016-08-26T12:08:25.211Z,38.97
2016-08-26T12:09:24.620Z,39.38
2016-08-26T12:10:25.948Z,39.41
2016-08-26T12:11:24.490Z,38.96
2016-08-26T12:12:25.292Z,38.58
2016-08-26T12:13:25.617Z,36.67
2016-08-26T12:14:24.921Z,36.4
2016-08-26T12:15:25.245Z,35.8
2016-08-26T12:16:26.253Z,35.24
2016-08-26T12:17:25.250Z,35.17
2016-08-26T12:18:27.663Z,35.17
2016-08-26T12:19:27.322Z,35.12
2016-08-26T12:20:26.288Z,37.11
2016-08-26T12:21:25.828Z,38.46
2016-08-26T12:22:25.665Z,39.49
2016-08-26T12:23:24.785Z,38.28
2016-08-26T12:24:26.694Z,36.46
2016-08-26T12:25:24.728Z,37.94
2016-08-26T12:26:25.302Z,38.19
2016-08-26T12:27:25.431Z,39.21
2016-08-26T12:28:26.285Z,38.38
2016-08-26T12:29:24.900Z,39.44
2016-08-26T12:30:25.658Z,40.12
2016-08-26T12:31:26.015Z,40.72
2016-08-26T12:32:26.004Z,40.73
2016-08-26T12:33:26.742Z,39.21
2016-08-26T12:34:25.985Z,37.28
2016-08-26T12:35:27.241Z,36.67
2016-08-26T12:36:25.791Z,36.64
2016-08-26T12:37:25.734Z,36.33
2016-08-26T12:38:26.922Z,35.98
2016-08-26T12:39:26.422Z,36.65
2016-08-26T12:40:26.594Z,37.26
2016-08-26T12:41:27.220Z,36.31
2016-08-26T12:42:25.255Z,37.07
2016-08-26T12:43:26.464Z,36.77
2016-08-26T12:44:26.805Z,38.42
2016-08-26T12:45:26.877Z,37.65
2016-08-26T12:46:27.305Z,38.39
2016-08-26T12:47:26.444Z,38.46
2016-08-26T12:48:26.213Z,38.92
2016-08-26T12:49:28.183Z,40.47
2016-08-26T12:50:26.587Z,40.82
2016-08-26T12:51:27.908Z,41.49
2016-08-26T12:52:27.556Z,40.82
2016-08-26T12:53:26.225Z,40.78
2016-08-26T12:54:26.464Z,38.86
2016-08-26T12:55:26.908Z,38.86
2016-08-26T12:56:27.579Z,39.53